sensor_id;sensor_type;location;lat;lon;timestamp;P1;durP1;ratioP1;P2;durP2;ratioP2
28714;SDS011;15886;49.170;14.572;2024-01-30T00:00:36;20.80;;;11.02;;
28714;SDS011;15886;49.170;14.572;2024-01-30T00:03:12;26.77;;;11.52;;
28714;SDS011;15886;49.170;14.572;2024-01-30T00:05:40;29.30;;;11.57;;
28714;SDS011;15886;49.170;14.572;2024-01-30T00:08:08;27.42;;;12.38;;
28714;SDS011;15886;49.170;14.572;2024-01-30T00:10:36;28.42;;;12.23;;
28714;SDS011;15886;49.170;14.572;2024-01-30T00:13:04;30.27;;;11.50;;
28714;SDS011;15886;49.170;14.572;2024-01-30T00:15:33;19.48;;;11.35;;
28714;SDS011;15886;49.170;14.572;2024-01-30T00:18:01;28.55;;;12.73;;
28714;SDS011;15886;49.170;14.572;2024-01-30T00:20:29;27.23;;;12.70;;
28714;SDS011;15886;49.170;14.572;2024-01-30T00:22:58;24.45;;;12.18;;
28714;SDS011;15886;49.170;14.572;2024-01-30T00:25:26;23.88;;;12.48;;
28714;SDS011;15886;49.170;14.572;2024-01-30T00:27:54;30.77;;;11.60;;
28714;SDS011;15886;49.170;14.572;2024-01-30T00:30:22;31.33;;;13.43;;
28714;SDS011;15886;49.170;14.572;2024-01-30T00:32:51;25.05;;;11.63;;
28714;SDS011;15886;49.170;14.572;2024-01-30T00:35:19;32.58;;;12.13;;
28714;SDS011;15886;49.170;14.572;2024-01-30T00:37:49;25.55;;;12.55;;
28714;SDS011;15886;49.170;14.572;2024-01-30T00:40:17;25.73;;;12.73;;
28714;SDS011;15886;49.170;14.572;2024-01-30T00:42:45;26.52;;;12.73;;
28714;SDS011;15886;49.170;14.572;2024-01-30T00:45:14;25.23;;;11.50;;
28714;SDS011;15886;49.170;14.572;2024-01-30T00:47:42;28.83;;;12.48;;
28714;SDS011;15886;49.170;14.572;2024-01-30T00:50:10;27.17;;;12.57;;
28714;SDS011;15886;49.170;14.572;2024-01-30T00:52:39;25.15;;;11.43;;
28714;SDS011;15886;49.170;14.572;2024-01-30T00:55:08;30.90;;;13.27;;
28714;SDS011;15886;49.170;14.572;2024-01-30T00:57:37;32.83;;;13.10;;
28714;SDS011;15886;49.170;14.572;2024-01-30T01:00:07;29.50;;;12.93;;
28714;SDS011;15886;49.170;14.572;2024-01-30T01:02:36;29.33;;;13.35;;
28714;SDS011;15886;49.170;14.572;2024-01-30T01:05:04;30.38;;;13.23;;
28714;SDS011;15886;49.170;14.572;2024-01-30T01:07:32;29.90;;;13.73;;
28714;SDS011;15886;49.170;14.572;2024-01-30T01:10:01;28.30;;;13.05;;
28714;SDS011;15886;49.170;14.572;2024-01-30T01:12:29;33.15;;;13.00;;
28714;SDS011;15886;49.170;14.572;2024-01-30T01:14:57;33.30;;;13.57;;
28714;SDS011;15886;49.170;14.572;2024-01-30T01:17:26;30.42;;;14.82;;
28714;SDS011;15886;49.170;14.572;2024-01-30T01:19:54;28.45;;;12.60;;
28714;SDS011;15886;49.170;14.572;2024-01-30T01:22:24;31.60;;;12.18;;
28714;SDS011;15886;49.170;14.572;2024-01-30T01:24:52;30.38;;;14.23;;
28714;SDS011;15886;49.170;14.572;2024-01-30T01:27:21;26.95;;;12.93;;
28714;SDS011;15886;49.170;14.572;2024-01-30T01:29:49;30.65;;;13.13;;
28714;SDS011;15886;49.170;14.572;2024-01-30T01:32:17;28.20;;;13.13;;
28714;SDS011;15886;49.170;14.572;2024-01-30T01:34:45;22.98;;;12.32;;
28714;SDS011;15886;49.170;14.572;2024-01-30T01:37:14;24.52;;;12.93;;
28714;SDS011;15886;49.170;14.572;2024-01-30T01:39:42;30.02;;;13.82;;
28714;SDS011;15886;49.170;14.572;2024-01-30T01:42:10;36.72;;;15.23;;
28714;SDS011;15886;49.170;14.572;2024-01-30T01:44:38;39.70;;;15.02;;
28714;SDS011;15886;49.170;14.572;2024-01-30T01:47:06;34.08;;;14.57;;
28714;SDS011;15886;49.170;14.572;2024-01-30T01:49:35;33.38;;;15.52;;
28714;SDS011;15886;49.170;14.572;2024-01-30T01:52:03;32.30;;;14.63;;
28714;SDS011;15886;49.170;14.572;2024-01-30T01:54:32;39.47;;;15.05;;
28714;SDS011;15886;49.170;14.572;2024-01-30T01:57:00;31.33;;;15.05;;
28714;SDS011;15886;49.170;14.572;2024-01-30T01:59:29;31.73;;;14.35;;
28714;SDS011;15886;49.170;14.572;2024-01-30T02:01:57;39.47;;;14.35;;
28714;SDS011;15886;49.170;14.572;2024-01-30T02:04:25;43.25;;;15.70;;
28714;SDS011;15886;49.170;14.572;2024-01-30T02:06:56;37.63;;;14.75;;
28714;SDS011;15886;49.170;14.572;2024-01-30T02:09:24;31.65;;;14.13;;
28714;SDS011;15886;49.170;14.572;2024-01-30T02:11:52;33.17;;;13.48;;
28714;SDS011;15886;49.170;14.572;2024-01-30T02:14:22;31.08;;;14.98;;
28714;SDS011;15886;49.170;14.572;2024-01-30T02:16:51;37.15;;;16.08;;
28714;SDS011;15886;49.170;14.572;2024-01-30T02:19:19;38.33;;;15.63;;
28714;SDS011;15886;49.170;14.572;2024-01-30T02:21:49;32.25;;;14.88;;
28714;SDS011;15886;49.170;14.572;2024-01-30T02:24:17;35.47;;;15.55;;
28714;SDS011;15886;49.170;14.572;2024-01-30T02:26:47;32.72;;;15.05;;
28714;SDS011;15886;49.170;14.572;2024-01-30T02:29:15;36.47;;;15.73;;
28714;SDS011;15886;49.170;14.572;2024-01-30T02:31:44;32.97;;;14.95;;
28714;SDS011;15886;49.170;14.572;2024-01-30T02:34:13;38.25;;;17.30;;
28714;SDS011;15886;49.170;14.572;2024-01-30T02:36:44;32.97;;;15.10;;
28714;SDS011;15886;49.170;14.572;2024-01-30T02:39:13;33.03;;;15.88;;
28714;SDS011;15886;49.170;14.572;2024-01-30T02:41:41;33.75;;;15.15;;
28714;SDS011;15886;49.170;14.572;2024-01-30T02:44:09;31.20;;;14.77;;
28714;SDS011;15886;49.170;14.572;2024-01-30T02:46:37;44.53;;;16.35;;
28714;SDS011;15886;49.170;14.572;2024-01-30T02:49:06;35.03;;;14.70;;
28714;SDS011;15886;49.170;14.572;2024-01-30T02:51:34;38.58;;;15.40;;
28714;SDS011;15886;49.170;14.572;2024-01-30T02:54:02;40.15;;;16.83;;
28714;SDS011;15886;49.170;14.572;2024-01-30T02:56:30;40.15;;;16.40;;
28714;SDS011;15886;49.170;14.572;2024-01-30T02:58:59;39.95;;;15.52;;
28714;SDS011;15886;49.170;14.572;2024-01-30T03:01:27;29.25;;;15.65;;
28714;SDS011;15886;49.170;14.572;2024-01-30T03:03:57;44.20;;;15.00;;
28714;SDS011;15886;49.170;14.572;2024-01-30T03:06:25;35.83;;;14.85;;
28714;SDS011;15886;49.170;14.572;2024-01-30T03:08:53;36.60;;;15.15;;
28714;SDS011;15886;49.170;14.572;2024-01-30T03:11:21;47.30;;;17.73;;
28714;SDS011;15886;49.170;14.572;2024-01-30T03:13:52;36.00;;;16.50;;
28714;SDS011;15886;49.170;14.572;2024-01-30T03:16:20;39.22;;;16.55;;
28714;SDS011;15886;49.170;14.572;2024-01-30T03:18:48;41.22;;;15.05;;
28714;SDS011;15886;49.170;14.572;2024-01-30T03:21:17;38.30;;;16.17;;
28714;SDS011;15886;49.170;14.572;2024-01-30T03:23:45;39.67;;;16.23;;
28714;SDS011;15886;49.170;14.572;2024-01-30T03:26:15;48.63;;;20.10;;
28714;SDS011;15886;49.170;14.572;2024-01-30T03:28:43;46.97;;;19.08;;
28714;SDS011;15886;49.170;14.572;2024-01-30T03:31:14;43.25;;;18.52;;
28714;SDS011;15886;49.170;14.572;2024-01-30T03:33:42;42.17;;;17.95;;
28714;SDS011;15886;49.170;14.572;2024-01-30T03:36:12;40.88;;;19.55;;
28714;SDS011;15886;49.170;14.572;2024-01-30T03:38:40;43.78;;;18.27;;
28714;SDS011;15886;49.170;14.572;2024-01-30T03:41:10;39.45;;;17.40;;
28714;SDS011;15886;49.170;14.572;2024-01-30T03:43:38;39.20;;;17.23;;
28714;SDS011;15886;49.170;14.572;2024-01-30T03:46:08;36.95;;;17.25;;
28714;SDS011;15886;49.170;14.572;2024-01-30T03:48:37;38.72;;;17.80;;
28714;SDS011;15886;49.170;14.572;2024-01-30T03:51:05;43.22;;;18.40;;
28714;SDS011;15886;49.170;14.572;2024-01-30T03:53:34;50.30;;;20.33;;
28714;SDS011;15886;49.170;14.572;2024-01-30T03:56:02;52.63;;;19.98;;
28714;SDS011;15886;49.170;14.572;2024-01-30T03:58:31;49.38;;;17.60;;
28714;SDS011;15886;49.170;14.572;2024-01-30T04:00:59;35.33;;;16.30;;
28714;SDS011;15886;49.170;14.572;2024-01-30T04:03:27;44.20;;;19.58;;
28714;SDS011;15886;49.170;14.572;2024-01-30T04:05:57;44.63;;;18.83;;
28714;SDS011;15886;49.170;14.572;2024-01-30T04:08:25;46.63;;;18.52;;
28714;SDS011;15886;49.170;14.572;2024-01-30T04:10:55;48.85;;;19.52;;
28714;SDS011;15886;49.170;14.572;2024-01-30T04:13:23;51.20;;;20.35;;
28714;SDS011;15886;49.170;14.572;2024-01-30T04:15:51;41.97;;;16.77;;
28714;SDS011;15886;49.170;14.572;2024-01-30T04:18:22;47.85;;;21.60;;
28714;SDS011;15886;49.170;14.572;2024-01-30T04:20:50;51.92;;;20.67;;
28714;SDS011;15886;49.170;14.572;2024-01-30T04:23:18;38.20;;;17.58;;
28714;SDS011;15886;49.170;14.572;2024-01-30T04:25:47;37.50;;;16.95;;
28714;SDS011;15886;49.170;14.572;2024-01-30T04:28:15;43.78;;;18.80;;
28714;SDS011;15886;49.170;14.572;2024-01-30T04:30:45;39.25;;;16.88;;
28714;SDS011;15886;49.170;14.572;2024-01-30T04:33:17;38.35;;;19.15;;
28714;SDS011;15886;49.170;14.572;2024-01-30T04:35:45;47.50;;;18.13;;
28714;SDS011;15886;49.170;14.572;2024-01-30T04:38:14;43.50;;;19.65;;
28714;SDS011;15886;49.170;14.572;2024-01-30T04:40:42;52.45;;;23.08;;
28714;SDS011;15886;49.170;14.572;2024-01-30T04:43:11;47.55;;;21.20;;
28714;SDS011;15886;49.170;14.572;2024-01-30T04:45:41;40.80;;;18.98;;
28714;SDS011;15886;49.170;14.572;2024-01-30T04:48:10;41.55;;;18.30;;
28714;SDS011;15886;49.170;14.572;2024-01-30T04:50:38;44.03;;;17.77;;
28714;SDS011;15886;49.170;14.572;2024-01-30T04:53:08;45.63;;;17.95;;
28714;SDS011;15886;49.170;14.572;2024-01-30T04:55:57;48.17;;;18.50;;
28714;SDS011;15886;49.170;14.572;2024-01-30T05:01:47;53.08;;;22.80;;
28714;SDS011;15886;49.170;14.572;2024-01-30T05:04:16;42.42;;;20.15;;
28714;SDS011;15886;49.170;14.572;2024-01-30T05:06:45;40.15;;;19.45;;
28714;SDS011;15886;49.170;14.572;2024-01-30T05:09:14;46.20;;;19.90;;
28714;SDS011;15886;49.170;14.572;2024-01-30T05:11:43;41.95;;;17.92;;
28714;SDS011;15886;49.170;14.572;2024-01-30T05:14:11;41.65;;;19.60;;
28714;SDS011;15886;49.170;14.572;2024-01-30T05:16:42;47.03;;;18.98;;
28714;SDS011;15886;49.170;14.572;2024-01-30T05:19:13;45.22;;;17.75;;
28714;SDS011;15886;49.170;14.572;2024-01-30T05:21:42;39.35;;;18.30;;
28714;SDS011;15886;49.170;14.572;2024-01-30T05:24:10;45.58;;;17.02;;
28714;SDS011;15886;49.170;14.572;2024-01-30T05:26:38;41.33;;;18.75;;
28714;SDS011;15886;49.170;14.572;2024-01-30T05:29:07;40.95;;;18.52;;
28714;SDS011;15886;49.170;14.572;2024-01-30T05:31:35;45.42;;;19.00;;
28714;SDS011;15886;49.170;14.572;2024-01-30T05:34:04;39.67;;;17.00;;
28714;SDS011;15886;49.170;14.572;2024-01-30T05:36:34;51.92;;;20.08;;
28714;SDS011;15886;49.170;14.572;2024-01-30T05:39:02;48.60;;;18.33;;
28714;SDS011;15886;49.170;14.572;2024-01-30T05:41:33;41.03;;;16.83;;
28714;SDS011;15886;49.170;14.572;2024-01-30T05:44:02;43.03;;;17.48;;
28714;SDS011;15886;49.170;14.572;2024-01-30T05:46:30;45.90;;;17.25;;
28714;SDS011;15886;49.170;14.572;2024-01-30T05:48:58;41.83;;;17.92;;
28714;SDS011;15886;49.170;14.572;2024-01-30T05:51:27;35.03;;;16.25;;
28714;SDS011;15886;49.170;14.572;2024-01-30T05:53:55;46.13;;;18.15;;
28714;SDS011;15886;49.170;14.572;2024-01-30T05:56:24;40.55;;;16.95;;
28714;SDS011;15886;49.170;14.572;2024-01-30T05:58:52;46.67;;;17.90;;
28714;SDS011;15886;49.170;14.572;2024-01-30T06:01:21;43.20;;;17.77;;
28714;SDS011;15886;49.170;14.572;2024-01-30T06:03:49;47.22;;;17.55;;
28714;SDS011;15886;49.170;14.572;2024-01-30T06:06:18;39.22;;;17.95;;
28714;SDS011;15886;49.170;14.572;2024-01-30T06:08:46;46.40;;;18.40;;
28714;SDS011;15886;49.170;14.572;2024-01-30T06:11:14;43.08;;;17.20;;
28714;SDS011;15886;49.170;14.572;2024-01-30T06:13:42;42.20;;;18.05;;
28714;SDS011;15886;49.170;14.572;2024-01-30T06:16:10;48.65;;;19.48;;
28714;SDS011;15886;49.170;14.572;2024-01-30T06:18:39;49.17;;;20.00;;
28714;SDS011;15886;49.170;14.572;2024-01-30T06:21:07;55.65;;;18.80;;
28714;SDS011;15886;49.170;14.572;2024-01-30T06:23:36;39.00;;;18.13;;
28714;SDS011;15886;49.170;14.572;2024-01-30T06:26:06;44.47;;;18.67;;
28714;SDS011;15886;49.170;14.572;2024-01-30T06:28:34;41.55;;;18.58;;
28714;SDS011;15886;49.170;14.572;2024-01-30T06:31:02;40.08;;;17.15;;
28714;SDS011;15886;49.170;14.572;2024-01-30T06:33:33;40.63;;;17.20;;
28714;SDS011;15886;49.170;14.572;2024-01-30T06:36:03;46.13;;;19.75;;
28714;SDS011;15886;49.170;14.572;2024-01-30T06:38:31;45.20;;;19.70;;
28714;SDS011;15886;49.170;14.572;2024-01-30T06:41:00;39.72;;;17.63;;
28714;SDS011;15886;49.170;14.572;2024-01-30T06:43:28;43.45;;;17.27;;
28714;SDS011;15886;49.170;14.572;2024-01-30T06:45:56;48.13;;;19.30;;
28714;SDS011;15886;49.170;14.572;2024-01-30T06:48:25;55.33;;;20.15;;
28714;SDS011;15886;49.170;14.572;2024-01-30T06:50:54;44.42;;;19.10;;
28714;SDS011;15886;49.170;14.572;2024-01-30T06:53:24;46.63;;;19.77;;
28714;SDS011;15886;49.170;14.572;2024-01-30T06:55:56;50.92;;;19.33;;
28714;SDS011;15886;49.170;14.572;2024-01-30T06:58:25;52.95;;;19.25;;
28714;SDS011;15886;49.170;14.572;2024-01-30T07:00:54;40.55;;;16.92;;
28714;SDS011;15886;49.170;14.572;2024-01-30T07:03:22;42.28;;;19.45;;
28714;SDS011;15886;49.170;14.572;2024-01-30T07:05:52;38.80;;;16.75;;
28714;SDS011;15886;49.170;14.572;2024-01-30T07:08:20;48.83;;;17.83;;
28714;SDS011;15886;49.170;14.572;2024-01-30T07:10:49;44.60;;;18.17;;
28714;SDS011;15886;49.170;14.572;2024-01-30T07:13:17;45.38;;;18.67;;
28714;SDS011;15886;49.170;14.572;2024-01-30T07:15:45;43.70;;;21.13;;
28714;SDS011;15886;49.170;14.572;2024-01-30T07:18:15;50.97;;;23.33;;
28714;SDS011;15886;49.170;14.572;2024-01-30T07:20:43;52.65;;;23.75;;
28714;SDS011;15886;49.170;14.572;2024-01-30T07:23:15;46.05;;;21.38;;
28714;SDS011;15886;49.170;14.572;2024-01-30T07:25:45;53.35;;;17.92;;
28714;SDS011;15886;49.170;14.572;2024-01-30T07:28:14;43.67;;;19.98;;
28714;SDS011;15886;49.170;14.572;2024-01-30T07:30:45;39.30;;;16.45;;
28714;SDS011;15886;49.170;14.572;2024-01-30T07:33:14;41.70;;;17.67;;
28714;SDS011;15886;49.170;14.572;2024-01-30T07:35:43;41.20;;;17.35;;
28714;SDS011;15886;49.170;14.572;2024-01-30T07:38:11;41.20;;;17.42;;
28714;SDS011;15886;49.170;14.572;2024-01-30T07:40:39;41.08;;;15.93;;
28714;SDS011;15886;49.170;14.572;2024-01-30T07:43:08;54.95;;;17.92;;
28714;SDS011;15886;49.170;14.572;2024-01-30T07:45:39;42.55;;;18.05;;
28714;SDS011;15886;49.170;14.572;2024-01-30T07:48:08;83.55;;;32.28;;
28714;SDS011;15886;49.170;14.572;2024-01-30T07:50:42;48.35;;;20.33;;
28714;SDS011;15886;49.170;14.572;2024-01-30T07:53:10;45.90;;;21.23;;
28714;SDS011;15886;49.170;14.572;2024-01-30T07:55:38;64.60;;;23.95;;
28714;SDS011;15886;49.170;14.572;2024-01-30T07:58:07;56.08;;;23.52;;
28714;SDS011;15886;49.170;14.572;2024-01-30T08:00:36;41.90;;;15.95;;
28714;SDS011;15886;49.170;14.572;2024-01-30T08:03:04;43.58;;;17.33;;
28714;SDS011;15886;49.170;14.572;2024-01-30T08:05:33;34.92;;;15.52;;
28714;SDS011;15886;49.170;14.572;2024-01-30T08:08:02;39.83;;;17.58;;
28714;SDS011;15886;49.170;14.572;2024-01-30T08:10:30;43.72;;;16.23;;
28714;SDS011;15886;49.170;14.572;2024-01-30T08:12:58;44.42;;;17.67;;
28714;SDS011;15886;49.170;14.572;2024-01-30T08:15:26;43.13;;;17.85;;
28714;SDS011;15886;49.170;14.572;2024-01-30T08:17:54;38.30;;;14.70;;
28714;SDS011;15886;49.170;14.572;2024-01-30T08:20:25;39.20;;;18.02;;
28714;SDS011;15886;49.170;14.572;2024-01-30T08:22:53;51.95;;;20.25;;
28714;SDS011;15886;49.170;14.572;2024-01-30T08:25:21;46.03;;;17.50;;
28714;SDS011;15886;49.170;14.572;2024-01-30T08:27:50;38.42;;;16.35;;
28714;SDS011;15886;49.170;14.572;2024-01-30T08:30:18;41.53;;;19.10;;
28714;SDS011;15886;49.170;14.572;2024-01-30T08:32:47;41.60;;;18.35;;
28714;SDS011;15886;49.170;14.572;2024-01-30T08:35:15;53.67;;;20.63;;
28714;SDS011;15886;49.170;14.572;2024-01-30T08:37:44;35.80;;;17.05;;
28714;SDS011;15886;49.170;14.572;2024-01-30T08:40:12;48.08;;;21.13;;
28714;SDS011;15886;49.170;14.572;2024-01-30T08:42:40;51.95;;;20.55;;
28714;SDS011;15886;49.170;14.572;2024-01-30T08:45:08;42.42;;;18.42;;
28714;SDS011;15886;49.170;14.572;2024-01-30T08:47:36;46.92;;;19.42;;
28714;SDS011;15886;49.170;14.572;2024-01-30T08:50:05;46.97;;;17.48;;
28714;SDS011;15886;49.170;14.572;2024-01-30T08:52:35;37.40;;;17.83;;
28714;SDS011;15886;49.170;14.572;2024-01-30T08:55:03;41.08;;;17.70;;
28714;SDS011;15886;49.170;14.572;2024-01-30T08:57:32;38.10;;;16.92;;
28714;SDS011;15886;49.170;14.572;2024-01-30T09:00:01;48.55;;;21.50;;
28714;SDS011;15886;49.170;14.572;2024-01-30T09:02:33;45.88;;;18.42;;
28714;SDS011;15886;49.170;14.572;2024-01-30T09:05:01;41.83;;;20.17;;
28714;SDS011;15886;49.170;14.572;2024-01-30T09:07:30;42.20;;;17.70;;
28714;SDS011;15886;49.170;14.572;2024-01-30T09:09:58;43.22;;;18.83;;
28714;SDS011;15886;49.170;14.572;2024-01-30T09:12:26;46.10;;;18.98;;
28714;SDS011;15886;49.170;14.572;2024-01-30T09:14:54;34.15;;;16.40;;
28714;SDS011;15886;49.170;14.572;2024-01-30T09:17:22;40.00;;;18.92;;
28714;SDS011;15886;49.170;14.572;2024-01-30T09:19:50;45.40;;;19.42;;
28714;SDS011;15886;49.170;14.572;2024-01-30T09:22:19;39.78;;;18.55;;
28714;SDS011;15886;49.170;14.572;2024-01-30T09:24:47;37.40;;;17.33;;
28714;SDS011;15886;49.170;14.572;2024-01-30T09:27:15;42.50;;;17.77;;
28714;SDS011;15886;49.170;14.572;2024-01-30T09:29:43;37.72;;;16.35;;
28714;SDS011;15886;49.170;14.572;2024-01-30T09:32:11;39.13;;;18.50;;
28714;SDS011;15886;49.170;14.572;2024-01-30T09:34:39;36.30;;;16.05;;
28714;SDS011;15886;49.170;14.572;2024-01-30T09:37:08;52.35;;;20.25;;
28714;SDS011;15886;49.170;14.572;2024-01-30T09:39:36;42.00;;;19.75;;
28714;SDS011;15886;49.170;14.572;2024-01-30T09:42:11;45.05;;;18.55;;
28714;SDS011;15886;49.170;14.572;2024-01-30T09:44:44;53.10;;;19.48;;
28714;SDS011;15886;49.170;14.572;2024-01-30T09:47:15;46.03;;;19.35;;
28714;SDS011;15886;49.170;14.572;2024-01-30T09:49:44;44.33;;;19.50;;
28714;SDS011;15886;49.170;14.572;2024-01-30T09:52:12;48.40;;;19.25;;
28714;SDS011;15886;49.170;14.572;2024-01-30T09:54:41;52.65;;;21.85;;
28714;SDS011;15886;49.170;14.572;2024-01-30T09:57:10;40.35;;;17.42;;
28714;SDS011;15886;49.170;14.572;2024-01-30T09:59:41;49.95;;;19.38;;
28714;SDS011;15886;49.170;14.572;2024-01-30T10:02:11;42.30;;;18.50;;
28714;SDS011;15886;49.170;14.572;2024-01-30T10:04:41;51.92;;;22.40;;
28714;SDS011;15886;49.170;14.572;2024-01-30T10:07:09;65.75;;;23.45;;
28714;SDS011;15886;49.170;14.572;2024-01-30T10:09:39;53.78;;;20.38;;
28714;SDS011;15886;49.170;14.572;2024-01-30T10:12:11;45.20;;;18.70;;
28714;SDS011;15886;49.170;14.572;2024-01-30T10:14:39;38.47;;;17.13;;
28714;SDS011;15886;49.170;14.572;2024-01-30T10:17:11;49.50;;;17.92;;
28714;SDS011;15886;49.170;14.572;2024-01-30T10:19:40;47.35;;;23.65;;
28714;SDS011;15886;49.170;14.572;2024-01-30T10:22:09;47.67;;;20.90;;
28714;SDS011;15886;49.170;14.572;2024-01-30T10:24:37;80.43;;;28.58;;
28714;SDS011;15886;49.170;14.572;2024-01-30T10:27:05;62.20;;;24.00;;
28714;SDS011;15886;49.170;14.572;2024-01-30T10:29:34;74.95;;;29.08;;
28714;SDS011;15886;49.170;14.572;2024-01-30T10:32:02;83.03;;;34.83;;
28714;SDS011;15886;49.170;14.572;2024-01-30T10:34:31;40.75;;;19.38;;
28714;SDS011;15886;49.170;14.572;2024-01-30T10:39:30;45.08;;;19.25;;
28714;SDS011;15886;49.170;14.572;2024-01-30T10:42:04;45.95;;;18.73;;
28714;SDS011;15886;49.170;14.572;2024-01-30T10:44:36;42.38;;;19.05;;
28714;SDS011;15886;49.170;14.572;2024-01-30T10:47:06;42.65;;;19.02;;
28714;SDS011;15886;49.170;14.572;2024-01-30T10:49:35;41.22;;;15.70;;
28714;SDS011;15886;49.170;14.572;2024-01-30T10:52:05;39.65;;;15.45;;
28714;SDS011;15886;49.170;14.572;2024-01-30T10:54:34;41.83;;;15.93;;
28714;SDS011;15886;49.170;14.572;2024-01-30T10:57:02;44.30;;;17.10;;
28714;SDS011;15886;49.170;14.572;2024-01-30T10:59:32;41.25;;;17.33;;
28714;SDS011;15886;49.170;14.572;2024-01-30T11:02:01;38.35;;;15.05;;
28714;SDS011;15886;49.170;14.572;2024-01-30T11:04:40;37.22;;;15.38;;
28714;SDS011;15886;49.170;14.572;2024-01-30T11:12:41;40.58;;;16.58;;
28714;SDS011;15886;49.170;14.572;2024-01-30T11:15:13;44.60;;;18.65;;
28714;SDS011;15886;49.170;14.572;2024-01-30T11:22:47;47.83;;;20.58;;
28714;SDS011;15886;49.170;14.572;2024-01-30T11:25:16;43.08;;;18.13;;
28714;SDS011;15886;49.170;14.572;2024-01-30T11:27:45;56.67;;;23.00;;
28714;SDS011;15886;49.170;14.572;2024-01-30T11:30:29;55.40;;;22.10;;
28714;SDS011;15886;49.170;14.572;2024-01-30T11:35:35;35.20;;;16.92;;
28714;SDS011;15886;49.170;14.572;2024-01-30T11:38:03;41.47;;;19.13;;
28714;SDS011;15886;49.170;14.572;2024-01-30T11:40:32;40.40;;;17.58;;
28714;SDS011;15886;49.170;14.572;2024-01-30T11:43:01;42.17;;;17.98;;
28714;SDS011;15886;49.170;14.572;2024-01-30T11:45:30;42.22;;;19.80;;
28714;SDS011;15886;49.170;14.572;2024-01-30T11:47:59;39.20;;;18.25;;
28714;SDS011;15886;49.170;14.572;2024-01-30T11:50:35;47.45;;;20.52;;
28714;SDS011;15886;49.170;14.572;2024-01-30T11:53:03;43.45;;;20.20;;
28714;SDS011;15886;49.170;14.572;2024-01-30T11:55:32;49.40;;;20.80;;
28714;SDS011;15886;49.170;14.572;2024-01-30T11:58:03;54.20;;;21.20;;
28714;SDS011;15886;49.170;14.572;2024-01-30T12:00:33;58.83;;;22.75;;
28714;SDS011;15886;49.170;14.572;2024-01-30T12:03:02;54.80;;;20.27;;
28714;SDS011;15886;49.170;14.572;2024-01-30T12:05:32;47.72;;;19.13;;
28714;SDS011;15886;49.170;14.572;2024-01-30T12:08:01;42.60;;;20.38;;
28714;SDS011;15886;49.170;14.572;2024-01-30T12:10:29;37.92;;;19.33;;
28714;SDS011;15886;49.170;14.572;2024-01-30T12:12:57;44.55;;;19.67;;
28714;SDS011;15886;49.170;14.572;2024-01-30T12:15:26;44.35;;;17.00;;
28714;SDS011;15886;49.170;14.572;2024-01-30T12:18:03;43.40;;;17.20;;
28714;SDS011;15886;49.170;14.572;2024-01-30T12:20:35;37.85;;;16.50;;
28714;SDS011;15886;49.170;14.572;2024-01-30T12:23:05;48.65;;;17.42;;
28714;SDS011;15886;49.170;14.572;2024-01-30T12:25:34;39.67;;;17.85;;
28714;SDS011;15886;49.170;14.572;2024-01-30T12:28:02;45.42;;;19.75;;
28714;SDS011;15886;49.170;14.572;2024-01-30T12:30:30;98.47;;;34.72;;
28714;SDS011;15886;49.170;14.572;2024-01-30T12:32:59;45.55;;;19.20;;
28714;SDS011;15886;49.170;14.572;2024-01-30T12:35:28;35.30;;;15.98;;
28714;SDS011;15886;49.170;14.572;2024-01-30T12:37:58;30.52;;;16.13;;
28714;SDS011;15886;49.170;14.572;2024-01-30T12:40:27;36.90;;;15.25;;
28714;SDS011;15886;49.170;14.572;2024-01-30T12:42:56;36.80;;;15.52;;
28714;SDS011;15886;49.170;14.572;2024-01-30T12:45:25;36.72;;;15.75;;
28714;SDS011;15886;49.170;14.572;2024-01-30T12:47:53;33.58;;;16.30;;
28714;SDS011;15886;49.170;14.572;2024-01-30T12:50:22;31.88;;;15.40;;
28714;SDS011;15886;49.170;14.572;2024-01-30T12:52:50;34.78;;;15.38;;
28714;SDS011;15886;49.170;14.572;2024-01-30T12:55:19;34.10;;;16.35;;
28714;SDS011;15886;49.170;14.572;2024-01-30T12:57:47;40.72;;;17.15;;
28714;SDS011;15886;49.170;14.572;2024-01-30T13:00:15;43.22;;;17.55;;
28714;SDS011;15886;49.170;14.572;2024-01-30T13:02:44;34.58;;;15.82;;
28714;SDS011;15886;49.170;14.572;2024-01-30T13:05:12;34.72;;;15.75;;
28714;SDS011;15886;49.170;14.572;2024-01-30T13:07:40;33.42;;;15.07;;
28714;SDS011;15886;49.170;14.572;2024-01-30T13:10:10;30.67;;;15.45;;
28714;SDS011;15886;49.170;14.572;2024-01-30T13:12:38;29.73;;;15.30;;
28714;SDS011;15886;49.170;14.572;2024-01-30T13:15:06;34.28;;;15.00;;
28714;SDS011;15886;49.170;14.572;2024-01-30T13:17:35;30.27;;;14.13;;
28714;SDS011;15886;49.170;14.572;2024-01-30T13:20:04;35.70;;;15.25;;
28714;SDS011;15886;49.170;14.572;2024-01-30T13:22:36;39.58;;;16.10;;
28714;SDS011;15886;49.170;14.572;2024-01-30T13:25:06;49.45;;;19.40;;
28714;SDS011;15886;49.170;14.572;2024-01-30T13:27:37;53.03;;;18.98;;
28714;SDS011;15886;49.170;14.572;2024-01-30T13:30:06;32.92;;;15.95;;
28714;SDS011;15886;49.170;14.572;2024-01-30T13:32:38;25.45;;;13.50;;
28714;SDS011;15886;49.170;14.572;2024-01-30T13:35:08;32.72;;;16.88;;
28714;SDS011;15886;49.170;14.572;2024-01-30T13:37:36;30.55;;;15.70;;
28714;SDS011;15886;49.170;14.572;2024-01-30T13:40:06;35.72;;;14.65;;
28714;SDS011;15886;49.170;14.572;2024-01-30T13:42:35;39.30;;;16.90;;
28714;SDS011;15886;49.170;14.572;2024-01-30T13:45:03;34.90;;;15.95;;
28714;SDS011;15886;49.170;14.572;2024-01-30T13:47:31;33.45;;;16.65;;
28714;SDS011;15886;49.170;14.572;2024-01-30T13:50:00;34.63;;;14.35;;
28714;SDS011;15886;49.170;14.572;2024-01-30T13:52:28;29.50;;;14.18;;
28714;SDS011;15886;49.170;14.572;2024-01-30T13:54:57;30.17;;;14.50;;
28714;SDS011;15886;49.170;14.572;2024-01-30T13:57:26;35.65;;;16.30;;
28714;SDS011;15886;49.170;14.572;2024-01-30T13:59:54;34.08;;;16.67;;
28714;SDS011;15886;49.170;14.572;2024-01-30T14:02:22;41.40;;;18.85;;
28714;SDS011;15886;49.170;14.572;2024-01-30T14:04:50;34.92;;;17.75;;
28714;SDS011;15886;49.170;14.572;2024-01-30T14:07:19;36.88;;;15.88;;
28714;SDS011;15886;49.170;14.572;2024-01-30T14:09:47;33.55;;;15.43;;
28714;SDS011;15886;49.170;14.572;2024-01-30T14:12:16;28.27;;;14.05;;
28714;SDS011;15886;49.170;14.572;2024-01-30T14:14:44;31.63;;;14.43;;
28714;SDS011;15886;49.170;14.572;2024-01-30T14:17:12;35.00;;;15.45;;
28714;SDS011;15886;49.170;14.572;2024-01-30T14:19:41;38.45;;;15.65;;
28714;SDS011;15886;49.170;14.572;2024-01-30T14:22:09;40.45;;;18.60;;
28714;SDS011;15886;49.170;14.572;2024-01-30T14:24:37;49.42;;;18.98;;
28714;SDS011;15886;49.170;14.572;2024-01-30T14:27:06;43.85;;;19.73;;
28714;SDS011;15886;49.170;14.572;2024-01-30T14:29:35;39.35;;;17.88;;
28714;SDS011;15886;49.170;14.572;2024-01-30T14:32:03;40.15;;;19.58;;
28714;SDS011;15886;49.170;14.572;2024-01-30T14:34:32;41.92;;;19.33;;
28714;SDS011;15886;49.170;14.572;2024-01-30T14:37:00;37.15;;;16.90;;